Nearby METAR Reports

 

KLXT - Lees Summit Muni, Missouri, USA
Distance from station: E 5mi, 9km
Updated: Tue, 17-Jul-2018 10:53am CDT
Clear
Clear
 Wind from E
Wind: E 5 mph , 7 km/h
Temperature: 81°F , 27°C
Heat Index: 85°F , 29°C
Dew Point: 72°F , 22°C
Humidity: 74%
Barometer: 30.08 inHg , 1018.6 hPa
Clouds: Clear
Visibility: 10 miles , 16 km
2018/07/17 15:53 KLXT 171553Z AUTO 09004KT 10SM CLR 27/22 A3008 RMK AO2 SLP175 T02670217
KMKC - Kansas City/Dntn, Missouri, USA
Distance from station: NW 12mi, 19km
Updated: Tue, 17-Jul-2018 10:54am CDT
Few Clouds
Few Clouds
 Wind from ESE
Wind: ESE 3 mph , 6 km/h
Temperature: 81°F , 27°C
Heat Index: 83°F , 28°C
Dew Point: 66°F , 19°C
Humidity: 62%
Barometer: 30.06 inHg , 1017.9 hPa
Clouds: Few Clouds
Visibility: 10 miles , 16 km
Cloud details: Few Clouds 12000 ft
2018/07/17 15:54 KMKC 171554Z 12003KT 10SM FEW120 27/19 A3006 RMK AO2 SLP171 T02670194
 
KIXD - Olathe/Industria, Kansas, USA
Distance from station: WSW 25mi, 41km
Updated: Tue, 17-Jul-2018 11:53am CDT
Clear
Clear
 Wind from ESE
Wind: ESE 6 mph , 9 km/h
Temperature: 81°F , 27°C
Heat Index: 86°F , 30°C
Dew Point: 73°F , 23°C
Humidity: 79%
Barometer: 30.08 inHg , 1018.6 hPa
Clouds: Clear
Visibility: 10 miles , 16 km
2018/07/17 16:53 KIXD 171653Z 12005KT 10SM CLR 27/23 A3008 RMK AO2 SLP172 T02720228
KMCI - Kansas City/Intl, Missouri, USA
Distance from station: NW 26mi, 42km
Updated: Tue, 17-Jul-2018 11:53am CDT
Overcast
Overcast
 Wind from E
Wind: E 7 mph , 11 km/h
Temperature: 79°F , 26°C
Dew Point: 68°F , 20°C
Humidity: 70%
Barometer: 30.07 inHg , 1018.3 hPa
Clouds: Overcast
Visibility: 10 miles , 16 km
Cloud details: Mostly cloudy 11000 ft
Overcast 16000 ft
2018/07/17 16:53 KMCI 171653Z 09006KT 10SM BKN110 OVC160 26/20 A3007 RMK AO2 SLP172 T02610200
 
KRCM - Warrensburg Skyh, Missouri, USA
Distance from station: ESE 38mi, 62km
Updated: Tue, 17-Jul-2018 11:55am CDT
Clear
Clear
 Wind from E
Wind: E 3 mph , 6 km/h
Temperature: 81°F , 27°C
Heat Index: 85°F , 29°C
Dew Point: 70°F , 21°C
Humidity: 70%
Barometer: 30.08 inHg , 1018.6 hPa
Clouds: Clear
Visibility: 10 miles , 16 km
2018/07/17 16:55 KRCM 171655Z AUTO 09003KT 10SM CLR 27/21 A3008 RMK AO2
KLWC - Lawrence, Kansas, USA
Distance from station: W 40mi, 65km
Updated: Tue, 17-Jul-2018 11:52am CDT
Partly cloudy
Partly cloudy
 Wind from SSW
Wind: SSW 5 mph , 7 km/h
Temperature: 81°F , 27°C
Heat Index: 86°F , 30°C
Dew Point: 73°F , 23°C
Humidity: 79%
Barometer: 30.06 inHg , 1017.9 hPa
Clouds: Partly cloudy
Visibility: 10 miles , 16 km
Cloud details: Partly cloudy 11000 ft
2018/07/17 16:52 KLWC 171652Z AUTO 20004KT 10SM SCT110 27/23 A3006 RMK AO2 SLP171 T02720233
 
KSZL - Whiteman Afb, Missouri, USA
Distance from station: ESE 53mi, 86km
Updated: Tue, 17-Jul-2018 10:56am CDT
Overcast
Overcast
 Wind from SSE
Wind: SSE 5 mph , 7 km/h
Temperature: 82°F , 28°C
Heat Index: 86°F , 30°C
Dew Point: 72°F , 22°C
Humidity: 70%
Barometer: 30.03 inHg , 1016.9 hPa
Clouds: Overcast
Visibility: 10 miles , 16 km
Cloud details: Mostly cloudy 17000 ft
Overcast 20000 ft
2018/07/17 15:56 KSZL 171556Z 15004KT 10SM BKN170 OVC200 28/22 A3003 RMK AO2A SLP163 T02770219 $
KSTJ - St. Joseph, Missouri, USA
Distance from station: NNW 59mi, 95km
Updated: Tue, 17-Jul-2018 11:53am CDT
Clear
Clear
 Wind from E
Wind: E 7 mph , 11 km/h
Temperature: 79°F , 26°C
Dew Point: 70°F , 21°C
Humidity: 74%
Barometer: 30.07 inHg , 1018.3 hPa
Clouds: Clear
Visibility: 10 miles , 16 km
2018/07/17 16:53 KSTJ 171653Z 10006KT 10SM CLR 26/21 A3007 RMK AO2 SLP173 T02560206
 
KGLY - Clinton, Missouri, USA
Distance from station: SE 61mi, 98km
Updated: Tue, 17-Jul-2018 11:35am CDT
Clear
Clear
 Wind from calm
Wind: Calm
Temperature: 84°F , 29°C
Heat Index: 90°F , 32°C
Dew Point: 73°F , 23°C
Humidity: 70%
Barometer: 30.08 inHg , 1018.6 hPa
Clouds: Clear
Visibility: 10 miles , 16 km
2018/07/17 16:35 KGLY 171635Z AUTO 00000KT 10SM CLR 29/23 A3008 RMK AO2
KFOE - Topeka/Forbes, Kansas, USA
Distance from station: W 64mi, 103km
Updated: Tue, 17-Jul-2018 11:53am CDT
Light rain, Partly cloudy
Light rain, Partly cloudy
 Wind from WSW
Wind: WSW 5 mph , 7 km/h
Temperature: 73°F , 23°C
Dew Point: 72°F , 22°C
Humidity: 94%
Barometer: 30.06 inHg , 1017.9 hPa
Summary: Light rain
Clouds: Partly cloudy
Visibility: 10 miles , 16 km
Cloud details: Partly cloudy 12000 ft
2018/07/17 16:53 KFOE 171653Z 25004KT 10SM -RA SCT120 23/22 A3006 RMK AO2 RAB1554E04B47 SLP171 P
 
KDMO - Sedalia, Missouri, USA
Distance from station: ESE 72mi, 116km
Updated: Tue, 17-Jul-2018 11:53am CDT
Clear
Clear
 Wind from calm
Wind: Calm
Temperature: 86°F , 30°C
Heat Index: 93°F , 34°C
Dew Point: 73°F , 23°C
Humidity: 66%
Barometer: 30.10 inHg , 1019.3 hPa
Clouds: Clear
Visibility: 10 miles , 16 km
2018/07/17 16:53 KDMO 171653Z AUTO 00000KT 10SM CLR 30/23 A3010 RMK AO2 SLP182 T03000228
KCDJ - Chillicothe, Missouri, USA
Distance from station: NE 74mi, 120km
Updated: Tue, 17-Jul-2018 11:52am CDT

 Wind from calm
Wind: Calm
Temperature: 82°F , 28°C
Heat Index: 83°F , 28°C
Dew Point: 63°F , 17°C
Humidity: 51%
Barometer: 30.10 inHg , 1019.3 hPa
2018/07/17 16:52 KCDJ 171652Z AUTO 00000KT 28/17 A3010 RMK AO1 SLP179 T02780167
 
KFNB - Falls City/Brenn, Nebraska, USA
Distance from station: NW 96mi, 154km
Updated: Tue, 17-Jul-2018 11:53am CDT
Nearby thunderstorm, Light rain, Overcast
Nearby thunderstorm, Light rain, Overcast
 Wind from WSW
Wind: WSW 5 mph , 7 km/h
Temperature: 73°F , 23°C
Dew Point: 66°F , 19°C
Humidity: 78%
Barometer: 30.09 inHg , 1019 hPa
Summary: Nearby thunderstorm, Light rain
Clouds: Overcast
Visibility: 10 miles , 16 km
Cloud details: Mostly cloudy 2800 ft
Mostly cloudy 4500 ft
Overcast 6000 ft
2018/07/17 16:53 KFNB 171653Z AUTO 24004KT 10SM VCTS -RA BKN028 BKN045 OVC060 23/19 A3009 RMK AO2 LTG DSNT W AND NW RAB30 SLP180 P0000 T02330189
KVER - Boonville, Missouri, USA
Distance from station: E 96mi, 154km
Updated: Tue, 17-Jul-2018 11:35am CDT
Clear
Clear
 Wind from NE
Wind: NE 7 mph , 11 km/h
Temperature: 84°F , 29°C
Heat Index: 87°F , 31°C
Dew Point: 68°F , 20°C
Humidity: 58%
Barometer: 30.08 inHg , 1018.6 hPa
Clouds: Clear
Visibility: 10 miles , 16 km
2018/07/17 16:35 KVER 171635Z AUTO 04006KT 10SM CLR 29/20 A3008 RMK AO2 T02940196